sensor_id;sensor_type;location;lat;lon;timestamp;P1;durP1;ratioP1;P2;durP2;ratioP2
78365;SDS011;67641;59.864;30.464;2023-04-03T00:01:24;5.82;;;0.95;;
78365;SDS011;67641;59.864;30.464;2023-04-03T00:03:51;5.88;;;0.82;;
78365;SDS011;67641;59.864;30.464;2023-04-03T00:06:17;6.20;;;1.08;;
78365;SDS011;67641;59.864;30.464;2023-04-03T00:08:44;7.88;;;0.93;;
78365;SDS011;67641;59.864;30.464;2023-04-03T00:11:11;9.23;;;1.58;;
78365;SDS011;67641;59.864;30.464;2023-04-03T00:13:38;7.95;;;1.20;;
78365;SDS011;67641;59.864;30.464;2023-04-03T00:16:05;8.00;;;0.90;;
78365;SDS011;67641;59.864;30.464;2023-04-03T00:18:33;7.90;;;1.00;;
78365;SDS011;67641;59.864;30.464;2023-04-03T00:21:00;6.30;;;0.80;;
78365;SDS011;67641;59.864;30.464;2023-04-03T00:23:27;4.03;;;0.75;;
78365;SDS011;67641;59.864;30.464;2023-04-03T00:25:53;7.05;;;0.85;;
78365;SDS011;67641;59.864;30.464;2023-04-03T00:28:21;7.78;;;1.00;;
78365;SDS011;67641;59.864;30.464;2023-04-03T00:30:51;7.38;;;1.20;;
78365;SDS011;67641;59.864;30.464;2023-04-03T00:33:18;5.32;;;0.68;;
78365;SDS011;67641;59.864;30.464;2023-04-03T00:35:50;7.57;;;0.60;;
78365;SDS011;67641;59.864;30.464;2023-04-03T00:38:17;6.82;;;1.30;;
78365;SDS011;67641;59.864;30.464;2023-04-03T00:40:45;14.65;;;2.38;;
78365;SDS011;67641;59.864;30.464;2023-04-03T00:43:23;5.88;;;1.08;;
78365;SDS011;67641;59.864;30.464;2023-04-03T00:45:53;6.13;;;0.77;;
78365;SDS011;67641;59.864;30.464;2023-04-03T00:48:45;7.05;;;0.70;;
78365;SDS011;67641;59.864;30.464;2023-04-03T00:51:17;8.65;;;0.68;;
78365;SDS011;67641;59.864;30.464;2023-04-03T00:53:54;4.88;;;0.77;;
78365;SDS011;67641;59.864;30.464;2023-04-03T00:56:24;5.20;;;1.42;;
78365;SDS011;67641;59.864;30.464;2023-04-03T01:01:28;4.80;;;0.50;;
78365;SDS011;67641;59.864;30.464;2023-04-03T01:03:56;4.38;;;0.65;;
78365;SDS011;67641;59.864;30.464;2023-04-03T01:06:25;5.63;;;0.50;;
78365;SDS011;67641;59.864;30.464;2023-04-03T01:11:20;4.03;;;0.68;;
78365;SDS011;67641;59.864;30.464;2023-04-03T01:13:47;5.53;;;0.73;;
78365;SDS011;67641;59.864;30.464;2023-04-03T01:16:14;5.45;;;0.52;;
78365;SDS011;67641;59.864;30.464;2023-04-03T01:18:41;6.95;;;1.90;;
78365;SDS011;67641;59.864;30.464;2023-04-03T01:26:47;5.55;;;0.60;;
78365;SDS011;67641;59.864;30.464;2023-04-03T01:29:14;4.90;;;0.70;;
78365;SDS011;67641;59.864;30.464;2023-04-03T01:34:12;3.00;;;0.80;;
78365;SDS011;67641;59.864;30.464;2023-04-03T01:36:38;5.88;;;0.93;;
78365;SDS011;67641;59.864;30.464;2023-04-03T01:39:05;4.53;;;0.73;;
78365;SDS011;67641;59.864;30.464;2023-04-03T01:41:31;10.57;;;1.10;;
78365;SDS011;67641;59.864;30.464;2023-04-03T01:43:58;5.82;;;0.55;;
78365;SDS011;67641;59.864;30.464;2023-04-03T01:46:24;3.70;;;0.65;;
78365;SDS011;67641;59.864;30.464;2023-04-03T01:48:50;3.05;;;0.65;;
78365;SDS011;67641;59.864;30.464;2023-04-03T01:51:17;8.15;;;0.95;;
78365;SDS011;67641;59.864;30.464;2023-04-03T01:53:44;4.70;;;0.73;;
78365;SDS011;67641;59.864;30.464;2023-04-03T01:56:10;4.55;;;0.60;;
78365;SDS011;67641;59.864;30.464;2023-04-03T01:58:37;8.07;;;1.08;;
78365;SDS011;67641;59.864;30.464;2023-04-03T02:01:04;5.43;;;0.63;;
78365;SDS011;67641;59.864;30.464;2023-04-03T02:03:31;4.22;;;0.52;;
78365;SDS011;67641;59.864;30.464;2023-04-03T02:05:58;3.40;;;0.50;;
78365;SDS011;67641;59.864;30.464;2023-04-03T02:08:25;5.57;;;0.60;;
78365;SDS011;67641;59.864;30.464;2023-04-03T02:10:52;6.32;;;0.50;;
78365;SDS011;67641;59.864;30.464;2023-04-03T02:13:18;3.30;;;0.75;;
78365;SDS011;67641;59.864;30.464;2023-04-03T02:15:45;4.97;;;0.60;;
78365;SDS011;67641;59.864;30.464;2023-04-03T02:18:12;7.97;;;0.80;;
78365;SDS011;67641;59.864;30.464;2023-04-03T02:20:38;4.68;;;0.77;;
78365;SDS011;67641;59.864;30.464;2023-04-03T02:23:05;3.17;;;0.65;;
78365;SDS011;67641;59.864;30.464;2023-04-03T02:25:32;5.40;;;0.90;;
78365;SDS011;67641;59.864;30.464;2023-04-03T02:27:59;6.95;;;0.98;;
78365;SDS011;67641;59.864;30.464;2023-04-03T02:30:25;1.92;;;0.40;;
78365;SDS011;67641;59.864;30.464;2023-04-03T02:32:52;2.50;;;0.50;;
78365;SDS011;67641;59.864;30.464;2023-04-03T02:35:18;3.92;;;0.57;;
78365;SDS011;67641;59.864;30.464;2023-04-03T02:37:45;2.88;;;0.70;;
78365;SDS011;67641;59.864;30.464;2023-04-03T02:40:12;5.57;;;0.50;;
78365;SDS011;67641;59.864;30.464;2023-04-03T02:42:38;4.65;;;0.80;;
78365;SDS011;67641;59.864;30.464;2023-04-03T02:45:05;6.00;;;1.75;;
78365;SDS011;67641;59.864;30.464;2023-04-03T02:47:32;3.55;;;0.50;;
78365;SDS011;67641;59.864;30.464;2023-04-03T02:49:59;6.15;;;0.75;;
78365;SDS011;67641;59.864;30.464;2023-04-03T02:52:25;2.63;;;0.60;;
78365;SDS011;67641;59.864;30.464;2023-04-03T02:54:52;6.70;;;0.77;;
78365;SDS011;67641;59.864;30.464;2023-04-03T02:57:19;4.53;;;0.80;;
78365;SDS011;67641;59.864;30.464;2023-04-03T02:59:46;3.00;;;0.60;;
78365;SDS011;67641;59.864;30.464;2023-04-03T03:02:12;8.23;;;0.70;;
78365;SDS011;67641;59.864;30.464;2023-04-03T03:04:39;5.35;;;1.25;;
78365;SDS011;67641;59.864;30.464;2023-04-03T03:07:06;3.70;;;0.50;;
78365;SDS011;67641;59.864;30.464;2023-04-03T03:09:32;3.53;;;0.50;;
78365;SDS011;67641;59.864;30.464;2023-04-03T03:11:59;4.20;;;0.40;;
78365;SDS011;67641;59.864;30.464;2023-04-03T03:14:25;4.68;;;1.10;;
78365;SDS011;67641;59.864;30.464;2023-04-03T03:16:52;5.63;;;0.70;;
78365;SDS011;67641;59.864;30.464;2023-04-03T03:19:19;4.65;;;1.00;;
78365;SDS011;67641;59.864;30.464;2023-04-03T03:21:46;5.93;;;0.40;;
78365;SDS011;67641;59.864;30.464;2023-04-03T03:24:12;5.43;;;0.70;;
78365;SDS011;67641;59.864;30.464;2023-04-03T03:26:39;3.30;;;0.50;;
78365;SDS011;67641;59.864;30.464;2023-04-03T03:29:05;7.00;;;0.85;;
78365;SDS011;67641;59.864;30.464;2023-04-03T03:31:32;7.07;;;1.02;;
78365;SDS011;67641;59.864;30.464;2023-04-03T03:33:59;5.82;;;1.20;;
78365;SDS011;67641;59.864;30.464;2023-04-03T03:36:25;2.97;;;0.50;;
78365;SDS011;67641;59.864;30.464;2023-04-03T03:38:52;4.72;;;0.65;;
78365;SDS011;67641;59.864;30.464;2023-04-03T03:41:18;5.88;;;0.65;;
78365;SDS011;67641;59.864;30.464;2023-04-03T03:43:45;4.80;;;0.45;;
78365;SDS011;67641;59.864;30.464;2023-04-03T03:46:12;4.88;;;0.70;;
78365;SDS011;67641;59.864;30.464;2023-04-03T03:48:39;3.70;;;0.88;;
78365;SDS011;67641;59.864;30.464;2023-04-03T03:51:05;3.67;;;0.57;;
78365;SDS011;67641;59.864;30.464;2023-04-03T03:53:32;4.70;;;0.73;;
78365;SDS011;67641;59.864;30.464;2023-04-03T03:55:58;3.60;;;0.77;;
78365;SDS011;67641;59.864;30.464;2023-04-03T03:58:25;4.47;;;0.60;;
78365;SDS011;67641;59.864;30.464;2023-04-03T04:00:51;6.60;;;0.82;;
78365;SDS011;67641;59.864;30.464;2023-04-03T04:03:18;5.65;;;0.80;;
78365;SDS011;67641;59.864;30.464;2023-04-03T04:05:45;6.38;;;1.23;;
78365;SDS011;67641;59.864;30.464;2023-04-03T04:08:11;6.07;;;0.68;;
78365;SDS011;67641;59.864;30.464;2023-04-03T04:10:37;5.95;;;1.98;;
78365;SDS011;67641;59.864;30.464;2023-04-03T04:13:04;4.45;;;0.68;;
78365;SDS011;67641;59.864;30.464;2023-04-03T04:15:31;2.70;;;0.90;;
78365;SDS011;67641;59.864;30.464;2023-04-03T04:17:57;7.18;;;0.70;;
78365;SDS011;67641;59.864;30.464;2023-04-03T04:20:24;3.95;;;0.80;;
78365;SDS011;67641;59.864;30.464;2023-04-03T04:22:50;4.18;;;1.00;;
78365;SDS011;67641;59.864;30.464;2023-04-03T04:25:16;6.88;;;1.00;;
78365;SDS011;67641;59.864;30.464;2023-04-03T04:27:43;3.47;;;0.80;;
78365;SDS011;67641;59.864;30.464;2023-04-03T04:30:09;5.47;;;0.60;;
78365;SDS011;67641;59.864;30.464;2023-04-03T04:32:36;6.85;;;0.70;;
78365;SDS011;67641;59.864;30.464;2023-04-03T04:35:03;11.10;;;0.98;;
78365;SDS011;67641;59.864;30.464;2023-04-03T04:37:30;4.30;;;0.73;;
78365;SDS011;67641;59.864;30.464;2023-04-03T04:39:57;5.28;;;0.88;;
78365;SDS011;67641;59.864;30.464;2023-04-03T04:42:23;4.35;;;0.80;;
78365;SDS011;67641;59.864;30.464;2023-04-03T04:44:50;6.38;;;0.77;;
78365;SDS011;67641;59.864;30.464;2023-04-03T04:47:17;7.10;;;0.90;;
78365;SDS011;67641;59.864;30.464;2023-04-03T04:49:43;6.22;;;0.75;;
78365;SDS011;67641;59.864;30.464;2023-04-03T04:52:11;6.40;;;0.65;;
78365;SDS011;67641;59.864;30.464;2023-04-03T04:54:37;8.40;;;0.75;;
78365;SDS011;67641;59.864;30.464;2023-04-03T04:57:03;9.82;;;0.93;;
78365;SDS011;67641;59.864;30.464;2023-04-03T04:59:29;5.07;;;0.55;;
78365;SDS011;67641;59.864;30.464;2023-04-03T05:01:56;5.15;;;0.80;;
78365;SDS011;67641;59.864;30.464;2023-04-03T05:04:22;4.22;;;0.95;;
78365;SDS011;67641;59.864;30.464;2023-04-03T05:06:48;2.95;;;0.82;;
78365;SDS011;67641;59.864;30.464;2023-04-03T05:09:14;6.82;;;1.00;;
78365;SDS011;67641;59.864;30.464;2023-04-03T05:11:41;5.70;;;1.27;;
78365;SDS011;67641;59.864;30.464;2023-04-03T05:14:08;6.10;;;0.98;;
78365;SDS011;67641;59.864;30.464;2023-04-03T05:16:34;3.28;;;0.70;;
78365;SDS011;67641;59.864;30.464;2023-04-03T05:19:00;7.82;;;0.98;;
78365;SDS011;67641;59.864;30.464;2023-04-03T05:21:27;4.43;;;0.80;;
78365;SDS011;67641;59.864;30.464;2023-04-03T05:24:00;5.63;;;0.90;;
78365;SDS011;67641;59.864;30.464;2023-04-03T05:26:28;4.07;;;1.20;;
78365;SDS011;67641;59.864;30.464;2023-04-03T05:28:56;5.68;;;0.75;;
78365;SDS011;67641;59.864;30.464;2023-04-03T05:31:22;5.10;;;0.70;;
78365;SDS011;67641;59.864;30.464;2023-04-03T05:33:48;4.70;;;0.98;;
78365;SDS011;67641;59.864;30.464;2023-04-03T05:36:15;3.08;;;0.70;;
78365;SDS011;67641;59.864;30.464;2023-04-03T05:38:41;2.80;;;0.77;;
78365;SDS011;67641;59.864;30.464;2023-04-03T05:41:07;3.25;;;0.80;;
78365;SDS011;67641;59.864;30.464;2023-04-03T05:43:34;7.38;;;0.80;;
78365;SDS011;67641;59.864;30.464;2023-04-03T05:46:03;3.72;;;0.80;;
78365;SDS011;67641;59.864;30.464;2023-04-03T05:48:29;5.82;;;0.60;;
78365;SDS011;67641;59.864;30.464;2023-04-03T05:50:56;7.35;;;1.05;;
78365;SDS011;67641;59.864;30.464;2023-04-03T05:53:25;9.55;;;1.50;;
78365;SDS011;67641;59.864;30.464;2023-04-03T05:55:56;10.02;;;1.13;;
78365;SDS011;67641;59.864;30.464;2023-04-03T05:58:23;5.57;;;0.98;;
78365;SDS011;67641;59.864;30.464;2023-04-03T06:00:50;7.68;;;1.55;;
78365;SDS011;67641;59.864;30.464;2023-04-03T06:03:17;5.78;;;1.38;;
78365;SDS011;67641;59.864;30.464;2023-04-03T06:05:43;9.82;;;0.80;;
78365;SDS011;67641;59.864;30.464;2023-04-03T06:08:10;10.32;;;1.00;;
78365;SDS011;67641;59.864;30.464;2023-04-03T06:10:36;11.35;;;0.90;;
78365;SDS011;67641;59.864;30.464;2023-04-03T06:13:03;4.15;;;0.80;;
78365;SDS011;67641;59.864;30.464;2023-04-03T06:15:30;7.25;;;0.85;;
78365;SDS011;67641;59.864;30.464;2023-04-03T06:17:56;9.10;;;0.80;;
78365;SDS011;67641;59.864;30.464;2023-04-03T06:20:23;9.82;;;0.98;;
78365;SDS011;67641;59.864;30.464;2023-04-03T06:22:50;7.90;;;0.80;;
78365;SDS011;67641;59.864;30.464;2023-04-03T06:25:16;13.20;;;0.85;;
78365;SDS011;67641;59.864;30.464;2023-04-03T06:27:44;10.82;;;1.80;;
78365;SDS011;67641;59.864;30.464;2023-04-03T06:30:11;10.55;;;0.75;;
78365;SDS011;67641;59.864;30.464;2023-04-03T06:32:38;7.50;;;1.02;;
78365;SDS011;67641;59.864;30.464;2023-04-03T06:35:04;11.00;;;1.25;;
78365;SDS011;67641;59.864;30.464;2023-04-03T06:37:32;13.57;;;1.13;;
78365;SDS011;67641;59.864;30.464;2023-04-03T06:39:58;6.80;;;0.80;;
78365;SDS011;67641;59.864;30.464;2023-04-03T06:42:26;11.35;;;1.70;;
78365;SDS011;67641;59.864;30.464;2023-04-03T06:44:52;9.95;;;1.42;;
78365;SDS011;67641;59.864;30.464;2023-04-03T06:47:19;9.82;;;0.93;;
78365;SDS011;67641;59.864;30.464;2023-04-03T06:49:45;3.80;;;0.77;;
78365;SDS011;67641;59.864;30.464;2023-04-03T06:52:12;11.48;;;1.30;;
78365;SDS011;67641;59.864;30.464;2023-04-03T06:54:39;5.85;;;0.93;;
78365;SDS011;67641;59.864;30.464;2023-04-03T06:57:06;7.88;;;0.80;;
78365;SDS011;67641;59.864;30.464;2023-04-03T06:59:33;10.23;;;1.42;;
78365;SDS011;67641;59.864;30.464;2023-04-03T07:02:00;7.43;;;0.75;;
78365;SDS011;67641;59.864;30.464;2023-04-03T07:04:27;5.53;;;0.63;;
78365;SDS011;67641;59.864;30.464;2023-04-03T07:06:53;8.65;;;1.08;;
78365;SDS011;67641;59.864;30.464;2023-04-03T07:09:19;10.70;;;1.63;;
78365;SDS011;67641;59.864;30.464;2023-04-03T07:11:47;4.07;;;0.63;;
78365;SDS011;67641;59.864;30.464;2023-04-03T07:14:13;3.33;;;0.70;;
78365;SDS011;67641;59.864;30.464;2023-04-03T07:16:40;10.98;;;0.95;;
78365;SDS011;67641;59.864;30.464;2023-04-03T07:19:06;7.72;;;1.15;;
78365;SDS011;67641;59.864;30.464;2023-04-03T07:21:34;10.02;;;1.17;;
78365;SDS011;67641;59.864;30.464;2023-04-03T07:24:01;6.82;;;0.82;;
78365;SDS011;67641;59.864;30.464;2023-04-03T07:26:27;11.80;;;1.15;;
78365;SDS011;67641;59.864;30.464;2023-04-03T07:28:54;7.88;;;1.08;;
78365;SDS011;67641;59.864;30.464;2023-04-03T07:52:16;7.55;;;1.55;;
78365;SDS011;67641;59.864;30.464;2023-04-03T07:54:43;5.00;;;1.10;;
78365;SDS011;67641;59.864;30.464;2023-04-03T07:57:10;7.32;;;0.95;;
78365;SDS011;67641;59.864;30.464;2023-04-03T07:59:37;11.40;;;1.35;;
78365;SDS011;67641;59.864;30.464;2023-04-03T08:02:05;4.72;;;1.17;;
78365;SDS011;67641;59.864;30.464;2023-04-03T08:04:32;10.05;;;1.30;;
78365;SDS011;67641;59.864;30.464;2023-04-03T08:06:59;10.15;;;1.23;;
78365;SDS011;67641;59.864;30.464;2023-04-03T08:09:25;8.45;;;1.38;;
78365;SDS011;67641;59.864;30.464;2023-04-03T08:11:52;5.50;;;1.13;;
78365;SDS011;67641;59.864;30.464;2023-04-03T08:14:19;11.88;;;1.80;;
78365;SDS011;67641;59.864;30.464;2023-04-03T08:16:47;6.57;;;1.13;;
78365;SDS011;67641;59.864;30.464;2023-04-03T08:19:14;6.05;;;1.40;;
78365;SDS011;67641;59.864;30.464;2023-04-03T08:21:43;6.15;;;1.42;;
78365;SDS011;67641;59.864;30.464;2023-04-03T08:24:11;5.50;;;1.30;;
78365;SDS011;67641;59.864;30.464;2023-04-03T08:26:38;6.68;;;1.30;;
78365;SDS011;67641;59.864;30.464;2023-04-03T08:29:05;3.42;;;1.17;;
78365;SDS011;67641;59.864;30.464;2023-04-03T08:31:32;8.55;;;1.60;;
78365;SDS011;67641;59.864;30.464;2023-04-03T08:33:59;5.68;;;1.10;;
78365;SDS011;67641;59.864;30.464;2023-04-03T08:36:27;11.07;;;1.27;;
78365;SDS011;67641;59.864;30.464;2023-04-03T08:38:56;9.88;;;1.90;;
78365;SDS011;67641;59.864;30.464;2023-04-03T08:41:26;6.38;;;1.27;;
78365;SDS011;67641;59.864;30.464;2023-04-03T08:47:11;6.38;;;1.27;;
78365;SDS011;67641;59.864;30.464;2023-04-03T08:49:33;9.07;;;1.67;;
78365;SDS011;67641;59.864;30.464;2023-04-03T08:52:11;13.20;;;2.33;;
78365;SDS011;67641;59.864;30.464;2023-04-03T08:54:47;11.77;;;1.75;;
78365;SDS011;67641;59.864;30.464;2023-04-03T08:57:20;10.25;;;1.50;;
78365;SDS011;67641;59.864;30.464;2023-04-03T09:00:01;9.00;;;1.45;;
78365;SDS011;67641;59.864;30.464;2023-04-03T09:02:43;8.10;;;1.45;;
78365;SDS011;67641;59.864;30.464;2023-04-03T09:05:14;9.70;;;1.50;;
78365;SDS011;67641;59.864;30.464;2023-04-03T09:07:53;8.73;;;2.42;;
78365;SDS011;67641;59.864;30.464;2023-04-03T09:10:32;8.48;;;1.63;;
78365;SDS011;67641;59.864;30.464;2023-04-03T09:13:22;5.32;;;1.67;;
78365;SDS011;67641;59.864;30.464;2023-04-03T09:16:02;7.72;;;1.55;;
78365;SDS011;67641;59.864;30.464;2023-04-03T09:18:42;7.63;;;1.65;;
78365;SDS011;67641;59.864;30.464;2023-04-03T09:21:27;8.75;;;1.55;;
78365;SDS011;67641;59.864;30.464;2023-04-03T09:24:01;11.43;;;1.80;;
78365;SDS011;67641;59.864;30.464;2023-04-03T09:26:36;4.43;;;1.25;;
78365;SDS011;67641;59.864;30.464;2023-04-03T09:29:19;10.95;;;1.90;;
78365;SDS011;67641;59.864;30.464;2023-04-03T09:31:54;7.20;;;2.00;;
78365;SDS011;67641;59.864;30.464;2023-04-03T09:36:53;8.82;;;2.00;;
78365;SDS011;67641;59.864;30.464;2023-04-03T09:39:22;4.18;;;1.52;;
78365;SDS011;67641;59.864;30.464;2023-04-03T09:44:28;7.30;;;2.05;;
78365;SDS011;67641;59.864;30.464;2023-04-03T09:46:59;9.40;;;2.30;;
78365;SDS011;67641;59.864;30.464;2023-04-03T09:49:44;12.77;;;2.67;;
78365;SDS011;67641;59.864;30.464;2023-04-03T09:52:19;12.00;;;2.95;;
78365;SDS011;67641;59.864;30.464;2023-04-03T09:54:49;6.38;;;3.05;;
78365;SDS011;67641;59.864;30.464;2023-04-03T09:57:16;10.75;;;3.47;;
78365;SDS011;67641;59.864;30.464;2023-04-03T09:59:58;14.77;;;4.53;;
78365;SDS011;67641;59.864;30.464;2023-04-03T10:05:25;12.52;;;4.55;;
78365;SDS011;67641;59.864;30.464;2023-04-03T10:08:19;11.32;;;4.30;;
78365;SDS011;67641;59.864;30.464;2023-04-03T10:11:17;14.07;;;4.63;;
78365;SDS011;67641;59.864;30.464;2023-04-03T10:13:51;13.15;;;5.22;;
78365;SDS011;67641;59.864;30.464;2023-04-03T10:16:25;13.35;;;5.43;;
78365;SDS011;67641;59.864;30.464;2023-04-03T10:21:59;13.57;;;5.20;;
78365;SDS011;67641;59.864;30.464;2023-04-03T10:24:36;14.88;;;5.65;;
78365;SDS011;67641;59.864;30.464;2023-04-03T10:27:33;11.18;;;4.07;;
78365;SDS011;67641;59.864;30.464;2023-04-03T10:30:03;10.88;;;4.88;;
78365;SDS011;67641;59.864;30.464;2023-04-03T10:40:47;14.65;;;5.70;;
78365;SDS011;67641;59.864;30.464;2023-04-03T10:46:07;10.43;;;5.38;;
78365;SDS011;67641;59.864;30.464;2023-04-03T10:52:48;9.00;;;3.35;;
78365;SDS011;67641;59.864;30.464;2023-04-03T10:57:36;16.02;;;4.63;;
78365;SDS011;67641;59.864;30.464;2023-04-03T11:00:04;7.95;;;4.05;;
78365;SDS011;67641;59.864;30.464;2023-04-03T11:02:48;9.85;;;3.65;;
78365;SDS011;67641;59.864;30.464;2023-04-03T11:05:21;8.35;;;3.78;;
78365;SDS011;67641;59.864;30.464;2023-04-03T11:11:00;8.85;;;3.30;;
78365;SDS011;67641;59.864;30.464;2023-04-03T11:13:36;12.65;;;3.78;;
78365;SDS011;67641;59.864;30.464;2023-04-03T11:16:06;9.18;;;4.28;;
78365;SDS011;67641;59.864;30.464;2023-04-03T11:18:40;9.40;;;3.17;;
78365;SDS011;67641;59.864;30.464;2023-04-03T11:23:43;10.85;;;3.70;;
78365;SDS011;67641;59.864;30.464;2023-04-03T11:26:12;8.82;;;4.13;;
78365;SDS011;67641;59.864;30.464;2023-04-03T11:34:10;11.60;;;3.92;;
78365;SDS011;67641;59.864;30.464;2023-04-03T11:56:02;10.90;;;4.25;;
78365;SDS011;67641;59.864;30.464;2023-04-03T11:58:33;9.90;;;3.22;;
78365;SDS011;67641;59.864;30.464;2023-04-03T12:13:40;9.77;;;3.75;;
78365;SDS011;67641;59.864;30.464;2023-04-03T12:18:57;8.20;;;2.50;;
78365;SDS011;67641;59.864;30.464;2023-04-03T12:29:23;9.63;;;3.33;;
78365;SDS011;67641;59.864;30.464;2023-04-03T12:46:11;7.32;;;2.17;;
78365;SDS011;67641;59.864;30.464;2023-04-03T12:51:13;7.60;;;2.17;;
78365;SDS011;67641;59.864;30.464;2023-04-03T12:53:44;6.97;;;2.40;;
78365;SDS011;67641;59.864;30.464;2023-04-03T12:56:45;8.43;;;2.65;;
78365;SDS011;67641;59.864;30.464;2023-04-03T12:59:24;6.65;;;2.08;;
78365;SDS011;67641;59.864;30.464;2023-04-03T13:01:56;7.60;;;2.80;;
78365;SDS011;67641;59.864;30.464;2023-04-03T13:04:24;9.63;;;2.60;;
78365;SDS011;67641;59.864;30.464;2023-04-03T13:06:52;8.48;;;2.28;;
78365;SDS011;67641;59.864;30.464;2023-04-03T13:09:20;7.97;;;2.60;;
78365;SDS011;67641;59.864;30.464;2023-04-03T13:11:56;8.75;;;2.55;;
78365;SDS011;67641;59.864;30.464;2023-04-03T13:14:27;4.25;;;1.45;;
78365;SDS011;67641;59.864;30.464;2023-04-03T13:16:59;7.47;;;2.28;;
78365;SDS011;67641;59.864;30.464;2023-04-03T13:19:39;5.35;;;1.75;;
78365;SDS011;67641;59.864;30.464;2023-04-03T13:22:11;9.90;;;1.92;;
78365;SDS011;67641;59.864;30.464;2023-04-03T13:24:50;9.13;;;2.10;;
78365;SDS011;67641;59.864;30.464;2023-04-03T13:27:18;10.80;;;1.90;;
78365;SDS011;67641;59.864;30.464;2023-04-03T13:29:49;9.15;;;2.50;;
78365;SDS011;67641;59.864;30.464;2023-04-03T13:32:19;7.60;;;2.35;;
78365;SDS011;67641;59.864;30.464;2023-04-03T13:34:48;9.32;;;2.33;;
78365;SDS011;67641;59.864;30.464;2023-04-03T13:37:24;7.05;;;2.10;;
78365;SDS011;67641;59.864;30.464;2023-04-03T13:42:34;4.28;;;1.15;;
78365;SDS011;67641;59.864;30.464;2023-04-03T13:47:40;7.82;;;1.80;;
78365;SDS011;67641;59.864;30.464;2023-04-03T13:53:12;7.35;;;2.22;;
78365;SDS011;67641;59.864;30.464;2023-04-03T13:55:51;6.90;;;1.50;;
78365;SDS011;67641;59.864;30.464;2023-04-03T13:58:25;6.13;;;1.75;;
78365;SDS011;67641;59.864;30.464;2023-04-03T14:03:37;8.90;;;1.95;;
78365;SDS011;67641;59.864;30.464;2023-04-03T14:06:18;10.00;;;1.77;;
78365;SDS011;67641;59.864;30.464;2023-04-03T14:08:45;9.88;;;2.05;;
78365;SDS011;67641;59.864;30.464;2023-04-03T14:11:15;7.18;;;2.15;;
78365;SDS011;67641;59.864;30.464;2023-04-03T14:13:48;6.85;;;2.00;;
78365;SDS011;67641;59.864;30.464;2023-04-03T14:16:21;8.88;;;1.58;;
78365;SDS011;67641;59.864;30.464;2023-04-03T14:18:51;5.38;;;1.70;;
78365;SDS011;67641;59.864;30.464;2023-04-03T14:21:19;7.60;;;2.00;;
78365;SDS011;67641;59.864;30.464;2023-04-03T14:23:47;9.93;;;2.05;;
78365;SDS011;67641;59.864;30.464;2023-04-03T14:26:19;5.53;;;1.50;;
78365;SDS011;67641;59.864;30.464;2023-04-03T14:28:49;7.88;;;1.67;;
78365;SDS011;67641;59.864;30.464;2023-04-03T14:31:19;6.93;;;1.67;;
78365;SDS011;67641;59.864;30.464;2023-04-03T14:33:46;8.65;;;1.65;;
78365;SDS011;67641;59.864;30.464;2023-04-03T14:36:18;4.38;;;1.35;;
78365;SDS011;67641;59.864;30.464;2023-04-03T14:38:47;9.50;;;1.90;;
78365;SDS011;67641;59.864;30.464;2023-04-03T14:41:16;6.20;;;1.80;;
78365;SDS011;67641;59.864;30.464;2023-04-03T14:46:13;7.45;;;2.05;;
78365;SDS011;67641;59.864;30.464;2023-04-03T14:48:43;7.72;;;1.63;;
78365;SDS011;67641;59.864;30.464;2023-04-03T14:51:11;4.60;;;1.52;;
78365;SDS011;67641;59.864;30.464;2023-04-03T14:53:39;8.20;;;1.58;;
78365;SDS011;67641;59.864;30.464;2023-04-03T14:58:44;7.88;;;1.90;;
78365;SDS011;67641;59.864;30.464;2023-04-03T15:01:15;8.45;;;2.33;;
78365;SDS011;67641;59.864;30.464;2023-04-03T15:03:42;8.02;;;1.70;;
78365;SDS011;67641;59.864;30.464;2023-04-03T15:06:12;10.55;;;1.80;;
78365;SDS011;67641;59.864;30.464;2023-04-03T15:08:40;10.00;;;2.40;;
78365;SDS011;67641;59.864;30.464;2023-04-03T15:11:08;6.32;;;1.88;;
78365;SDS011;67641;59.864;30.464;2023-04-03T15:13:37;7.45;;;1.77;;
78365;SDS011;67641;59.864;30.464;2023-04-03T15:16:04;6.32;;;1.88;;
78365;SDS011;67641;59.864;30.464;2023-04-03T15:18:37;7.30;;;2.13;;
78365;SDS011;67641;59.864;30.464;2023-04-03T15:21:04;12.05;;;2.22;;
78365;SDS011;67641;59.864;30.464;2023-04-03T15:23:31;10.75;;;4.05;;
78365;SDS011;67641;59.864;30.464;2023-04-03T15:25:58;7.40;;;2.25;;
78365;SDS011;67641;59.864;30.464;2023-04-03T15:28:30;10.68;;;1.90;;
78365;SDS011;67641;59.864;30.464;2023-04-03T15:30:58;10.40;;;2.72;;
78365;SDS011;67641;59.864;30.464;2023-04-03T15:33:25;12.23;;;2.50;;
78365;SDS011;67641;59.864;30.464;2023-04-03T15:35:52;9.07;;;1.90;;
78365;SDS011;67641;59.864;30.464;2023-04-03T15:38:18;9.43;;;1.85;;
78365;SDS011;67641;59.864;30.464;2023-04-03T15:40:45;7.30;;;1.80;;
78365;SDS011;67641;59.864;30.464;2023-04-03T15:43:15;7.57;;;2.03;;
78365;SDS011;67641;59.864;30.464;2023-04-03T15:45:42;8.25;;;2.70;;
78365;SDS011;67641;59.864;30.464;2023-04-03T15:48:10;6.38;;;2.00;;
78365;SDS011;67641;59.864;30.464;2023-04-03T15:50:38;9.10;;;2.30;;
78365;SDS011;67641;59.864;30.464;2023-04-03T15:53:05;8.02;;;2.13;;
78365;SDS011;67641;59.864;30.464;2023-04-03T15:55:33;12.07;;;1.92;;
78365;SDS011;67641;59.864;30.464;2023-04-03T15:58:01;6.35;;;2.10;;
78365;SDS011;67641;59.864;30.464;2023-04-03T16:00:28;6.95;;;2.13;;
78365;SDS011;67641;59.864;30.464;2023-04-03T16:02:58;7.28;;;1.95;;
78365;SDS011;67641;59.864;30.464;2023-04-03T16:05:29;10.68;;;2.47;;
78365;SDS011;67641;59.864;30.464;2023-04-03T16:07:57;9.35;;;2.50;;
78365;SDS011;67641;59.864;30.464;2023-04-03T16:10:26;12.20;;;2.67;;
78365;SDS011;67641;59.864;30.464;2023-04-03T16:12:53;7.32;;;2.60;;
78365;SDS011;67641;59.864;30.464;2023-04-03T16:15:20;10.77;;;2.70;;
78365;SDS011;67641;59.864;30.464;2023-04-03T16:17:46;6.90;;;2.53;;
78365;SDS011;67641;59.864;30.464;2023-04-03T16:20:14;8.40;;;2.38;;
78365;SDS011;67641;59.864;30.464;2023-04-03T16:22:41;7.97;;;2.40;;
78365;SDS011;67641;59.864;30.464;2023-04-03T16:25:08;8.55;;;3.08;;
78365;SDS011;67641;59.864;30.464;2023-04-03T16:27:35;13.73;;;5.00;;
78365;SDS011;67641;59.864;30.464;2023-04-03T16:30:02;7.97;;;3.00;;
78365;SDS011;67641;59.864;30.464;2023-04-03T16:32:29;16.23;;;3.35;;
78365;SDS011;67641;59.864;30.464;2023-04-03T16:34:57;8.00;;;2.90;;
78365;SDS011;67641;59.864;30.464;2023-04-03T16:37:24;9.23;;;2.70;;
78365;SDS011;67641;59.864;30.464;2023-04-03T16:39:52;6.75;;;2.22;;
78365;SDS011;67641;59.864;30.464;2023-04-03T16:42:18;7.25;;;2.60;;
78365;SDS011;67641;59.864;30.464;2023-04-03T16:44:45;10.68;;;3.20;;
78365;SDS011;67641;59.864;30.464;2023-04-03T16:47:12;9.32;;;2.65;;
78365;SDS011;67641;59.864;30.464;2023-04-03T16:49:39;7.30;;;2.63;;
78365;SDS011;67641;59.864;30.464;2023-04-03T16:52:06;10.15;;;2.60;;
78365;SDS011;67641;59.864;30.464;2023-04-03T16:54:33;11.27;;;2.40;;
78365;SDS011;67641;59.864;30.464;2023-04-03T16:56:59;7.30;;;2.30;;
78365;SDS011;67641;59.864;30.464;2023-04-03T16:59:26;8.27;;;2.92;;
78365;SDS011;67641;59.864;30.464;2023-04-03T17:01:52;8.77;;;2.83;;
78365;SDS011;67641;59.864;30.464;2023-04-03T17:04:19;9.52;;;2.60;;
78365;SDS011;67641;59.864;30.464;2023-04-03T17:06:45;9.43;;;2.40;;
78365;SDS011;67641;59.864;30.464;2023-04-03T17:09:12;6.70;;;2.72;;
78365;SDS011;67641;59.864;30.464;2023-04-03T17:11:39;11.13;;;2.60;;
78365;SDS011;67641;59.864;30.464;2023-04-03T17:14:05;5.53;;;1.80;;